Time;durP1;ratioP1;P1;durP2;ratioP2;P2;SDS_P1;SDS_P2;PMS_P1;PMS_P2;Temp;Humidity;BMP_temperature;BMP_pressure;BME280_temperature;BME280_humidity;BME280_pressure;Samples;Min_cycle;Max_cycle;Signal;HPM_P1;HPM_P2
2022/06/17 00:01:26;;;;;;;;;12.00;12.00;;;;;40.12;17.68;101687.72;5097668;27;45339;-78
2022/06/17 00:03:52;;;;;;;;;11.67;11.67;;;;;40.24;17.86;101702.38;5096829;27;45419;-77
2022/06/17 00:06:22;;;;;;;;;14.00;12.00;;;;;40.20;17.45;101704.56;5097174;27;45349;-77
2022/06/17 00:08:51;;;;;;;;;14.67;12.33;;;;;40.19;17.58;101704.72;5097359;27;45627;-78
2022/06/17 00:11:26;;;;;;;;;14.00;12.33;;;;;40.25;18.13;101698.56;5097191;27;45506;-77
2022/06/17 00:13:51;;;;;;;;;12.00;10.33;;;;;40.18;17.81;101687.13;5096318;27;46160;-77
2022/06/17 00:16:19;;;;;;;;;10.00;10.00;;;;;40.07;17.79;101693.72;5096971;27;45315;-78
2022/06/17 00:18:45;;;;;;;;;11.67;10.67;;;;;39.93;17.57;101692.19;5095828;27;45475;-78
2022/06/17 00:21:28;;;;;;;;;10.67;10.67;;;;;39.94;17.49;101691.13;5095609;27;45504;-78
2022/06/17 00:23:53;;;;;;;;;12.67;12.67;;;;;39.93;17.65;101689.41;5095462;27;48024;-77
2022/06/17 00:26:19;;;;;;;;;13.67;11.67;;;;;39.84;17.80;101690.22;5096451;27;45364;-77
2022/06/17 00:28:45;;;;;;;;;9.67;9.67;;;;;39.76;18.12;101693.72;5097162;27;45342;-78
2022/06/17 00:31:10;;;;;;;;;11.00;11.00;;;;;39.72;18.11;101681.13;5096783;27;45405;-77
2022/06/17 00:33:35;;;;;;;;;12.00;11.00;;;;;39.72;17.71;101683.00;5096626;27;45654;-78
2022/06/17 00:42:44;;;;;;;;;11.33;11.33;;;;;39.45;18.17;101670.56;5075974;28;45234;-78
2022/06/17 00:45:25;;;;;;;;;12.00;10.67;;;;;39.40;17.91;101678.47;5100742;27;47532;-77
2022/06/17 00:47:50;;;;;;;;;11.67;11.00;;;;;39.48;17.85;101697.19;5096714;27;45326;-78
2022/06/17 00:50:22;;;;;;;;;10.00;10.00;;;;;39.52;18.32;101695.91;5096295;27;45460;-78
2022/06/17 00:52:59;;;;;;;;;13.00;12.00;;;;;39.36;17.81;101666.75;5096604;27;45480;-78
2022/06/17 00:55:36;;;;;;;;;11.00;11.00;;;;;39.53;18.40;101698.53;5096208;27;45480;-78
2022/06/17 00:58:12;;;;;;;;;11.67;11.67;;;;;39.52;18.21;101682.00;5112125;27;45595;-77
2022/06/17 01:00:38;;;;;;;;;12.00;9.67;;;;;39.48;18.18;101692.53;5096839;27;45389;-78
2022/06/17 01:03:08;;;;;;;;;11.67;11.67;;;;;39.50;18.64;101686.84;5096130;27;45348;-77
2022/06/17 01:05:46;;;;;;;;;11.00;10.00;;;;;39.53;18.37;101684.66;5112179;27;48263;-78
2022/06/17 01:09:57;;;;;;;;;12.67;9.00;;;;;39.40;18.84;101670.13;5096024;27;45415;-78
2022/06/17 01:11:07;;;;;;;;;10.00;10.00;;;;;39.37;19.15;101700.91;5095681;27;45525;-78
2022/06/17 01:13:33;;;;;;;;;14.00;12.00;;;;;39.31;18.80;101690.38;5096420;27;45461;-78
2022/06/17 01:15:59;;;;;;;;;10.33;10.00;;;;;39.14;19.13;101666.91;5095706;27;46118;-77
2022/06/17 01:18:28;;;;;;;;;13.67;10.67;;;;;39.12;18.70;101675.34;5096114;27;45389;-77
2022/06/17 01:20:55;;;;;;;;;11.33;11.33;;;;;39.15;18.54;101693.66;5095928;27;45377;-77
2022/06/17 01:23:22;;;;;;;;;12.33;12.33;;;;;38.99;19.39;101675.53;5096228;27;45390;-77
2022/06/17 01:25:48;;;;;;;;;13.00;11.00;;;;;39.06;18.94;101698.06;5095386;27;46115;-77
2022/06/17 01:28:16;;;;;;;;;13.67;11.00;;;;;38.91;19.42;101675.31;5095836;27;45385;-77
2022/06/17 01:30:48;;;;;;;;;12.33;12.33;;;;;38.81;19.32;101641.97;5111607;27;45260;-77
2022/06/17 01:33:20;;;;;;;;;10.00;10.00;;;;;39.04;19.08;101700.09;5095933;27;45525;-78
2022/06/17 01:35:49;;;;;;;;;14.00;14.00;;;;;38.93;18.92;101693.59;5095796;27;45419;-77
2022/06/17 01:38:15;;;;;;;;;11.67;11.67;;;;;38.92;19.02;101685.41;5111638;27;45340;-77
2022/06/17 01:40:41;;;;;;;;;11.00;11.00;;;;;38.91;19.18;101694.75;5095663;27;45183;-77
2022/06/17 01:43:11;;;;;;;;;9.00;9.00;;;;;38.94;18.70;101689.78;5095678;27;45582;-77
2022/06/17 01:45:44;;;;;;;;;12.33;12.33;;;;;39.01;19.16;101684.59;5095540;27;45568;-77
2022/06/17 01:48:12;;;;;;;;;11.33;11.33;;;;;39.11;18.47;101684.66;5095718;27;45509;-77
2022/06/17 01:50:41;;;;;;;;;12.00;11.67;;;;;39.06;19.21;101700.81;5097541;27;45439;-78
2022/06/17 01:53:21;;;;;;;;;12.67;10.33;;;;;39.06;18.59;101690.63;5099076;27;45503;-77
2022/06/17 01:55:52;;;;;;;;;16.00;13.67;;;;;39.22;18.84;101709.59;5099031;27;45411;-78
2022/06/17 01:58:23;;;;;;;;;11.67;11.67;;;;;39.14;19.55;101698.28;5097827;27;45269;-78
2022/06/17 02:00:49;;;;;;;;;11.00;11.00;;;;;39.22;19.13;101709.59;5099635;27;45498;-78
2022/06/17 02:03:26;;;;;;;;;12.00;12.00;;;;;39.07;19.00;101710.91;5098903;27;45853;-77
2022/06/17 02:06:00;;;;;;;;;12.00;10.67;;;;;39.14;18.87;101737.16;5098948;27;45262;-78
2022/06/17 02:08:25;;;;;;;;;15.00;12.67;;;;;39.13;18.58;101740.94;5098802;27;45428;-78
2022/06/17 02:10:51;;;;;;;;;11.00;11.00;;;;;39.12;18.92;101720.59;5099186;27;46240;-77
2022/06/17 02:13:17;;;;;;;;;12.00;12.00;;;;;39.10;18.93;101719.88;5099080;27;45553;-78
2022/06/17 02:15:44;;;;;;;;;12.33;12.00;;;;;39.23;18.68;101733.56;5098818;27;45405;-77
2022/06/17 02:18:15;;;;;;;;;13.33;11.67;;;;;39.22;19.10;101730.94;5097520;27;45448;-78
2022/06/17 02:20:41;;;;;;;;;11.00;11.00;;;;;39.08;19.33;101746.00;5098977;27;45259;-77
2022/06/17 02:23:07;;;;;;;;;11.33;11.00;;;;;38.90;18.99;101738.22;5097222;27;45658;-78
2022/06/17 02:25:40;;;;;;;;;12.00;12.00;;;;;38.88;18.76;101728.31;5098656;27;46161;-77
2022/06/17 02:28:08;;;;;;;;;10.67;10.67;;;;;39.00;18.95;101737.44;5098658;27;45483;-77
2022/06/17 02:30:36;;;;;;;;;11.67;11.00;;;;;38.96;18.96;101756.28;5098958;27;45441;-78
2022/06/17 02:33:04;;;;;;;;;12.00;11.33;;;;;38.96;19.37;101750.72;5097336;27;45438;-78
2022/06/17 02:35:47;;;;;;;;;10.67;10.67;;;;;38.86;18.98;101758.06;5097332;27;48116;-77
2022/06/17 02:38:17;;;;;;;;;11.00;11.00;;;;;38.84;19.52;101755.41;5098013;27;45349;-78
2022/06/17 02:40:47;;;;;;;;;12.00;12.00;;;;;38.72;19.47;101731.50;5097607;27;45470;-77
2022/06/17 02:43:17;;;;;;;;;12.67;12.33;;;;;38.84;19.66;101751.78;5098652;27;45684;-78
2022/06/17 02:45:47;;;;;;;;;11.00;11.00;;;;;38.90;18.84;101754.00;5098201;27;46166;-77
2022/06/17 02:48:23;;;;;;;;;10.00;10.00;;;;;38.83;19.33;101742.56;5098437;27;45449;-77
2022/06/17 02:50:49;;;;;;;;;12.00;12.00;;;;;39.00;18.67;101752.19;5098653;27;45510;-77
2022/06/17 02:53:15;;;;;;;;;13.33;11.33;;;;;38.85;18.68;101731.31;5096561;27;45667;-77
2022/06/17 02:55:43;;;;;;;;;11.00;11.00;;;;;39.00;19.01;101748.53;5098087;27;46474;-78
2022/06/17 02:58:39;;;;;;;;;12.00;12.00;;;;;39.06;19.04;101757.22;5098256;27;45533;-78
2022/06/17 03:01:20;;;;;;;;;10.67;10.67;;;;;39.01;18.91;101761.41;5098099;27;45631;-78
2022/06/17 03:03:47;;;;;;;;;14.00;12.33;;;;;38.90;19.19;101762.34;5097003;27;45463;-78
2022/06/17 03:06:45;;;;;;;;;13.00;13.00;;;;;38.92;19.34;101763.97;5097588;27;45386;-78
2022/06/17 03:09:16;;;;;;;;;10.00;10.00;;;;;38.77;19.16;101737.56;5089328;27;45378;-78
2022/06/17 03:11:43;;;;;;;;;11.00;10.67;;;;;38.91;19.73;101758.56;5098370;27;45340;-77
2022/06/17 03:14:12;;;;;;;;;13.33;13.00;;;;;38.85;19.92;101762.75;5096620;27;45582;-77
2022/06/17 03:16:38;;;;;;;;;13.00;13.00;;;;;38.56;19.62;101732.78;5098054;27;45382;-77
2022/06/17 03:19:03;;;;;;;;;12.00;12.00;;;;;38.71;20.11;101743.63;5097677;27;45402;-78
2022/06/17 03:21:29;;;;;;;;;14.33;12.00;;;;;38.80;19.77;101758.59;5097771;27;45631;-77
2022/06/17 03:24:19;;;;;;;;;12.00;11.00;;;;;38.88;19.54;101748.59;5098085;27;45405;-78
2022/06/17 03:26:53;;;;;;;;;11.33;11.33;;;;;38.83;19.92;101748.09;5097987;27;45581;-78
2022/06/17 03:29:21;;;;;;;;;12.33;12.33;;;;;38.68;19.92;101728.13;5097922;27;45327;-78
2022/06/17 03:31:54;;;;;;;;;13.00;13.00;;;;;38.72;19.58;101731.50;5097950;27;45511;-78
2022/06/17 03:34:34;;;;;;;;;14.33;12.67;;;;;38.72;19.83;101717.63;5097678;27;45537;-77
2022/06/17 03:37:13;;;;;;;;;12.00;12.00;;;;;38.75;19.43;101731.28;5097282;27;46061;-77
2022/06/17 03:39:50;;;;;;;;;14.00;13.00;;;;;38.69;19.94;101727.09;5097651;27;45428;-77
2022/06/17 03:42:38;;;;;;;;;12.67;12.33;;;;;38.71;19.90;101740.88;5097761;27;45482;-77
2022/06/17 03:45:14;;;;;;;;;12.00;12.00;;;;;38.68;20.14;101724.47;5098546;27;45489;-77
2022/06/17 03:48:10;;;;;;;;;12.00;12.00;;;;;38.64;19.99;101703.50;5116890;27;47177;-77
2022/06/17 03:50:42;;;;;;;;;13.67;12.67;;;;;38.69;19.77;101723.47;5116367;27;45339;-77
2022/06/17 03:53:22;;;;;;;;;11.67;11.67;;;;;38.68;20.10;101718.91;5118076;27;45339;-77
2022/06/17 03:55:50;;;;;;;;;14.67;14.00;;;;;38.70;19.87;101712.22;5134183;27;45350;-77
2022/06/17 03:58:18;;;;;;;;;12.33;10.33;;;;;38.74;19.73;101715.63;5117501;27;48125;-76
2022/06/17 04:00:58;;;;;;;;;14.00;12.00;;;;;38.66;20.66;101704.28;5117964;27;45426;-75
2022/06/17 04:03:25;;;;;;;;;15.67;13.00;;;;;38.42;19.92;101722.00;5117918;27;45373;-75
2022/06/17 04:05:57;;;;;;;;;13.33;12.00;;;;;38.25;20.45;101754.78;5117555;27;45442;-76
2022/06/17 04:08:22;;;;;;;;;12.00;11.00;;;;;38.05;20.05;101752.75;5133727;27;48044;-75
2022/06/17 04:10:48;;;;;;;;;11.33;11.33;;;;;38.09;20.38;101751.50;5118105;27;45251;-75
2022/06/17 04:13:21;;;;;;;;;11.00;10.00;;;;;38.24;20.18;101757.69;5116592;27;45435;-75
2022/06/17 04:16:15;;;;;;;;;12.00;12.00;;;;;38.35;19.97;101770.66;5117514;27;45386;-76
2022/06/17 04:18:41;;;;;;;;;11.00;11.00;;;;;38.44;19.84;101761.56;5117089;27;45474;-75
2022/06/17 04:21:06;;;;;;;;;11.33;11.33;;;;;38.39;20.29;101756.41;5117518;27;45418;-75
2022/06/17 04:23:35;;;;;;;;;11.00;10.00;;;;;38.38;20.06;101745.44;5117890;27;45274;-75
2022/06/17 04:26:09;;;;;;;;;12.33;11.67;;;;;38.38;20.30;101760.19;5117726;27;45319;-76
2022/06/17 04:28:41;;;;;;;;;11.00;11.00;;;;;38.40;19.94;101771.16;5117296;27;46331;-75
2022/06/17 04:31:10;;;;;;;;;13.00;12.33;;;;;38.37;20.22;101758.44;5117372;27;45331;-76
2022/06/17 04:33:52;;;;;;;;;12.67;12.67;;;;;38.34;20.16;101760.56;5133199;27;45566;-75
2022/06/17 04:36:32;;;;;;;;;6.33;6.33;;;;;38.41;20.70;101767.34;5117450;27;45361;-76
2022/06/17 04:39:03;;;;;;;;;12.00;12.00;;;;;38.34;20.64;101757.78;5116990;27;45455;-75
2022/06/17 04:41:34;;;;;;;;;13.00;13.00;;;;;38.42;20.58;101763.56;5117165;27;45376;-76
2022/06/17 04:44:03;;;;;;;;;13.33;12.33;;;;;38.48;21.03;101764.94;5117438;27;45380;-76
2022/06/17 04:46:35;;;;;;;;;11.33;11.33;;;;;38.38;21.09;101745.44;5096610;27;45425;-75
2022/06/17 04:49:03;;;;;;;;;11.00;10.00;;;;;38.36;21.15;101753.00;5096089;27;46108;-75
2022/06/17 04:51:31;;;;;;;;;15.00;14.00;;;;;38.13;21.04;101710.56;5096564;27;45334;-75
2022/06/17 04:53:57;;;;;;;;;15.00;15.00;;;;;38.42;21.35;101771.91;5096613;27;45389;-76
2022/06/17 04:56:36;;;;;;;;;14.00;14.00;;;;;38.49;20.61;101773.13;5096296;27;45404;-75
2022/06/17 04:59:35;;;;;;;;;12.33;12.00;;;;;38.48;20.50;101759.41;5096319;27;45432;-76
2022/06/17 05:02:04;;;;;;;;;11.67;11.67;;;;;38.61;20.43;101771.25;5095660;27;45315;-73
2022/06/17 05:04:29;;;;;;;;;12.67;12.67;;;;;38.62;20.48;101767.44;5096380;27;45436;-73
2022/06/17 05:06:55;;;;;;;;;13.00;13.00;;;;;38.66;20.79;101776.38;5096283;27;45339;-73
2022/06/17 05:09:27;;;;;;;;;15.00;14.00;;;;;38.71;20.76;101788.88;5096146;27;46043;-73
2022/06/17 05:12:03;;;;;;;;;14.00;14.00;;;;;38.80;20.45;101781.66;5096232;27;45400;-72
2022/06/17 05:14:40;;;;;;;;;15.00;13.33;;;;;38.80;21.01;101765.00;5096224;27;45526;-73
2022/06/17 05:17:05;;;;;;;;;13.33;13.33;;;;;38.86;20.51;101774.69;5095663;27;45595;-72
2022/06/17 05:19:31;;;;;;;;;14.33;14.33;;;;;38.86;20.77;101770.06;5095877;27;45941;-73
2022/06/17 05:21:56;;;;;;;;;16.00;16.00;;;;;38.95;20.27;101774.78;5095963;27;53794;-72
2022/06/17 05:24:22;;;;;;;;;13.33;13.00;;;;;38.99;20.24;101774.53;5095659;27;45241;-72
2022/06/17 05:26:48;;;;;;;;;13.33;13.33;;;;;39.07;19.91;101756.22;5096335;27;45184;-73
2022/06/17 05:29:13;;;;;;;;;14.00;12.00;;;;;39.24;19.98;101754.78;5095679;27;45511;-73
2022/06/17 05:31:39;;;;;;;;;14.00;13.67;;;;;39.21;20.10;101746.69;5093969;27;45405;-73
2022/06/17 05:34:05;;;;;;;;;14.00;14.00;;;;;39.08;19.72;101741.31;5095994;27;45332;-73
2022/06/17 05:36:31;;;;;;;;;14.00;14.00;;;;;39.20;19.37;101739.41;5095622;27;45556;-74
2022/06/17 05:38:57;;;;;;;;;11.00;10.33;;;;;39.07;19.50;101738.66;5095665;27;45521;-74
2022/06/17 05:41:24;;;;;;;;;12.33;11.33;;;;;39.10;19.70;101744.84;5095506;27;45451;-75
2022/06/17 05:43:50;;;;;;;;;15.33;12.00;;;;;39.14;19.90;101751.03;5095784;27;45430;-75
2022/06/17 05:46:17;;;;;;;;;11.33;11.00;;;;;39.24;19.54;101751.09;5095098;27;45455;-75
2022/06/17 05:48:42;;;;;;;;;10.00;10.00;;;;;39.20;20.05;101744.97;5095600;27;45552;-75
2022/06/17 05:51:10;;;;;;;;;13.00;10.00;;;;;39.28;19.07;101745.16;5094314;27;45645;-68
2022/06/17 05:53:35;;;;;;;;;10.00;10.00;;;;;39.32;19.66;101747.66;5095784;27;45359;-77
2022/06/17 05:56:00;;;;;;;;;8.33;7.33;;;;;39.24;18.97;101737.22;5095791;27;45356;-77
2022/06/17 05:58:26;;;;;;;;;12.00;10.67;;;;;39.24;19.25;101720.56;5095336;27;45457;-76
2022/06/17 06:00:51;;;;;;;;;11.33;10.33;;;;;39.34;19.68;101740.06;5095415;27;45399;-76
2022/06/17 06:03:19;;;;;;;;;10.67;10.33;;;;;39.33;19.27;101728.09;5094188;27;45456;-76
2022/06/17 06:05:45;;;;;;;;;11.00;11.00;;;;;39.40;18.89;101734.00;5095540;27;45388;-76
2022/06/17 06:08:10;;;;;;;;;10.33;10.00;;;;;39.43;18.93;101739.25;5095247;27;46075;-76
2022/06/17 06:10:36;;;;;;;;;10.67;10.67;;;;;39.51;19.04;101756.13;5095332;27;45315;-76
2022/06/17 06:13:03;;;;;;;;;12.00;12.00;;;;;39.48;19.03;101759.19;5095449;27;45324;-76
2022/06/17 06:15:39;;;;;;;;;13.33;11.67;;;;;39.46;18.97;101750.09;5093362;27;45667;-76
2022/06/17 06:18:10;;;;;;;;;7.67;7.67;;;;;39.50;18.58;101748.81;5094080;27;47553;-76
2022/06/17 06:20:36;;;;;;;;;8.33;8.33;;;;;39.62;18.10;101753.28;5095144;27;45326;-76
2022/06/17 06:23:02;;;;;;;;;9.67;9.67;;;;;39.72;18.73;101766.34;5095443;27;45356;-76
2022/06/17 06:25:27;;;;;;;;;11.33;10.00;;;;;39.63;18.54;101734.72;5095131;27;45324;-76
2022/06/17 06:27:53;;;;;;;;;9.00;9.00;;;;;39.68;18.15;101748.19;5095201;27;46350;-76
2022/06/17 06:30:27;;;;;;;;;7.00;6.00;;;;;39.72;18.39;101742.25;5094902;27;45254;-76
2022/06/17 06:33:01;;;;;;;;;11.00;10.00;;;;;39.90;18.70;101734.16;5095209;27;45392;-76
2022/06/17 06:35:35;;;;;;;;;10.00;10.00;;;;;39.85;18.51;101722.56;5093644;27;45326;-76
2022/06/17 06:38:01;;;;;;;;;10.00;8.33;;;;;39.74;18.03;101694.88;5097181;27;45583;-76
2022/06/17 06:40:27;;;;;;;;;10.67;8.00;;;;;39.96;17.85;101714.13;5096804;27;45973;-76
2022/06/17 06:42:54;;;;;;;;;8.67;8.67;;;;;40.14;18.35;101730.13;5098679;27;45420;-76
2022/06/17 06:45:29;;;;;;;;;10.33;10.33;;;;;40.15;18.32;101694.91;5098136;27;45399;-76
2022/06/17 06:47:58;;;;;;;;;8.33;8.33;;;;;40.28;18.31;101709.41;5098262;27;45566;-76
2022/06/17 06:50:27;;;;;;;;;12.67;9.67;;;;;40.35;18.29;101710.59;5096963;27;45449;-75
2022/06/17 06:52:52;;;;;;;;;5.00;5.00;;;;;40.39;18.14;101713.97;5098246;27;45377;-75
2022/06/17 06:55:18;;;;;;;;;9.33;9.00;;;;;40.37;17.87;101711.34;5098140;27;45517;-75
2022/06/17 06:57:51;;;;;;;;;11.00;9.33;;;;;40.27;17.67;101724.34;5097767;27;45441;-75
2022/06/17 07:00:23;;;;;;;;;11.00;9.33;;;;;40.15;17.52;101701.34;5098366;27;45373;-75
2022/06/17 07:02:49;;;;;;;;;10.00;10.00;;;;;40.18;17.82;101712.16;5098543;27;45477;-75
2022/06/17 07:05:15;;;;;;;;;9.00;7.00;;;;;40.27;17.78;101718.78;5097930;27;45386;-75
2022/06/17 07:07:41;;;;;;;;;12.33;10.67;;;;;40.22;17.69;101708.06;5097948;27;45526;-75
2022/06/17 07:10:09;;;;;;;;;12.00;10.00;;;;;40.44;17.78;101711.66;5098031;27;45444;-75
2022/06/17 07:12:35;;;;;;;;;9.67;9.67;;;;;40.34;17.57;101689.38;5097565;27;45354;-75
2022/06/17 07:15:00;;;;;;;;;9.00;9.00;;;;;40.45;17.54;101692.03;5097954;27;45339;-75
2022/06/17 07:17:26;;;;;;;;;9.00;9.00;;;;;40.63;17.41;101708.03;5097854;27;46019;-75
2022/06/17 07:19:51;;;;;;;;;10.00;9.00;;;;;40.59;17.53;101710.25;5097815;27;45488;-75
2022/06/17 07:22:17;;;;;;;;;10.00;10.00;;;;;40.71;18.02;101718.44;5097903;27;45364;-75
2022/06/17 07:24:42;;;;;;;;;10.00;10.00;;;;;40.70;17.28;101730.59;5097660;27;48716;-75
2022/06/17 07:27:07;;;;;;;;;11.33;11.00;;;;;40.50;17.39;101711.09;5097325;27;46086;-75
2022/06/17 07:29:33;;;;;;;;;8.00;8.00;;;;;40.62;17.38;101731.28;5097611;27;45378;-75
2022/06/17 07:31:59;;;;;;;;;12.00;10.33;;;;;40.56;17.80;101729.09;5097777;27;45382;-76
2022/06/17 07:34:25;;;;;;;;;8.33;8.33;;;;;40.52;17.51;101725.72;5097613;27;45510;-75
2022/06/17 07:39:54;;;;;;;;;9.67;9.67;;;;;40.59;17.69;101749.19;5084800;27;45545;-75
2022/06/17 07:42:25;;;;;;;;;10.33;10.33;;;;;40.58;17.42;101740.97;5097263;27;45254;-75
2022/06/17 07:44:51;;;;;;;;;8.33;7.33;;;;;40.47;17.37;101725.25;5097667;27;45308;-76
2022/06/17 07:47:20;;;;;;;;;8.33;8.33;;;;;40.59;17.58;101714.91;5097365;27;45461;-82
2022/06/17 07:49:45;;;;;;;;;9.67;9.67;;;;;40.61;17.34;101729.56;5096879;27;45416;-75
2022/06/17 07:52:11;;;;;;;;;8.33;8.33;;;;;40.61;17.54;101741.56;5097416;27;45452;-75
2022/06/17 07:54:36;;;;;;;;;7.00;6.67;;;;;40.54;17.51;101726.47;5097175;27;45532;-75
2022/06/17 07:57:02;;;;;;;;;9.00;9.00;;;;;40.72;17.07;101759.13;5097006;27;45374;-75
2022/06/17 07:59:27;;;;;;;;;10.00;10.00;;;;;40.75;17.27;101747.72;5097083;27;45258;-75
2022/06/17 08:01:53;;;;;;;;;11.00;11.00;;;;;40.80;17.26;101757.41;5097242;27;45330;-75
2022/06/17 08:04:19;;;;;;;;;9.67;9.67;;;;;40.78;17.76;101767.78;5097220;27;45578;-75
2022/06/17 08:06:49;;;;;;;;;11.00;11.00;;;;;40.81;17.31;101764.69;5097034;27;45377;-75
2022/06/17 08:09:19;;;;;;;;;10.00;10.00;;;;;40.89;17.55;101777.91;5095827;27;45858;-75
2022/06/17 08:11:45;;;;;;;;;10.00;9.00;;;;;40.67;17.36;101772.59;5096940;27;45437;-75
2022/06/17 08:14:11;;;;;;;;;9.00;9.00;;;;;40.82;17.33;101790.63;5096987;27;45565;-75
2022/06/17 08:16:38;;;;;;;;;9.00;9.00;;;;;40.94;17.42;101783.06;5096474;27;46248;-75
2022/06/17 08:19:04;;;;;;;;;9.33;9.33;;;;;40.92;17.52;101772.06;5096949;27;45555;-75
2022/06/17 08:21:31;;;;;;;;;11.67;10.00;;;;;41.11;17.12;101787.91;5097198;27;45339;-75
2022/06/17 08:23:57;;;;;;;;;10.00;10.00;;;;;41.10;17.20;101790.81;5097062;27;45490;-75
2022/06/17 08:26:22;;;;;;;;;8.00;8.00;;;;;41.25;17.10;101800.47;5096550;27;46302;-75
2022/06/17 08:28:47;;;;;;;;;12.00;11.67;;;;;41.01;17.08;101787.00;5096847;27;45404;-75
2022/06/17 08:31:13;;;;;;;;;10.00;10.00;;;;;41.12;16.79;101774.84;5096956;27;45428;-75
2022/06/17 08:33:38;;;;;;;;;11.00;10.00;;;;;41.20;16.88;101783.34;5096780;27;45619;-75
2022/06/17 08:36:08;;;;;;;;;10.00;10.00;;;;;41.19;16.61;101789.06;5096612;27;46234;-75
2022/06/17 08:38:36;;;;;;;;;9.00;9.00;;;;;41.18;16.60;101771.47;5096448;27;45401;-75
2022/06/17 08:41:24;;;;;;;;;11.00;11.00;;;;;41.30;16.88;101770.28;5096412;27;45393;-75
2022/06/17 08:44:11;;;;;;;;;10.67;10.67;;;;;41.56;16.34;101774.38;5096741;27;45365;-75
2022/06/17 08:46:58;;;;;;;;;9.00;9.00;;;;;41.51;16.28;101769.28;5096474;27;45664;-75
2022/06/17 08:49:38;;;;;;;;;10.33;10.00;;;;;41.50;16.48;101770.28;5112414;27;45710;-75
2022/06/17 08:52:24;;;;;;;;;10.33;9.00;;;;;41.58;16.57;101773.22;5096780;27;45373;-75
2022/06/17 08:55:05;;;;;;;;;9.33;9.33;;;;;41.60;16.18;101776.69;5096125;27;45426;-75
2022/06/17 08:57:42;;;;;;;;;8.67;8.67;;;;;41.57;15.82;101754.72;5096189;27;46150;-75
2022/06/17 09:00:08;;;;;;;;;9.00;9.00;;;;;41.75;16.16;101774.31;5095833;27;45418;-75
2022/06/17 09:02:52;;;;;;;;;10.00;9.00;;;;;41.60;16.28;101764.69;5096262;27;45982;-75
2022/06/17 09:05:41;;;;;;;;;12.67;12.00;;;;;41.72;16.18;101768.16;5096343;27;45375;-75
2022/06/17 09:08:28;;;;;;;;;12.00;11.00;;;;;41.77;15.81;101761.13;5095997;27;45353;-75
2022/06/17 09:11:01;;;;;;;;;12.00;9.67;;;;;41.83;15.74;101765.22;5111811;27;45353;-75
2022/06/17 09:13:48;;;;;;;;;12.33;11.67;;;;;41.94;15.88;101762.28;5096443;27;45468;-75
2022/06/17 09:16:51;;;;;;;;;9.00;9.00;;;;;41.83;15.85;101754.97;5094756;27;45538;-75
2022/06/17 09:19:25;;;;;;;;;8.00;8.00;;;;;41.87;15.00;101749.97;5095912;27;46870;-75
2022/06/17 09:21:53;;;;;;;;;11.00;11.00;;;;;41.85;15.31;101743.69;5096027;27;45312;-75
2022/06/17 09:24:36;;;;;;;;;9.33;9.33;;;;;41.89;15.85;101742.34;5095769;27;45472;-75
2022/06/17 09:27:06;;;;;;;;;8.33;8.33;;;;;41.87;14.79;101758.31;5096048;27;45398;-75
2022/06/17 09:29:44;;;;;;;;;8.33;7.67;;;;;41.89;14.86;101749.84;5095642;27;46582;-75
2022/06/17 09:32:36;;;;;;;;;9.67;9.67;;;;;41.94;15.14;101751.13;5111931;27;45388;-74
2022/06/17 09:35:11;;;;;;;;;10.00;8.67;;;;;42.09;14.77;101734.75;5095671;27;45290;-75
2022/06/17 09:37:47;;;;;;;;;7.00;7.00;;;;;42.16;14.18;101754.53;5095535;27;45362;-75
2022/06/17 09:40:19;;;;;;;;;7.67;7.67;;;;;42.06;14.63;101751.78;5095690;27;46543;-75
2022/06/17 09:42:51;;;;;;;;;6.67;6.33;;;;;41.88;14.45;101734.13;5095521;27;45432;-75
2022/06/17 09:45:26;;;;;;;;;8.00;8.00;;;;;42.10;14.31;101744.00;5094563;27;45578;-74
2022/06/17 09:48:07;;;;;;;;;8.00;8.00;;;;;42.28;15.20;101744.06;5095498;27;45457;-75
2022/06/17 09:50:40;;;;;;;;;8.33;8.33;;;;;42.39;14.28;101738.28;5095671;27;45511;-75
2022/06/17 09:53:22;;;;;;;;;7.67;6.67;;;;;42.42;13.91;101737.09;5095196;27;45366;-75
2022/06/17 09:55:55;;;;;;;;;9.00;8.00;;;;;42.29;14.65;101729.97;5095530;27;45540;-75
2022/06/17 09:58:32;;;;;;;;;7.33;7.00;;;;;42.59;14.82;101727.88;5095586;27;45268;-75
2022/06/17 10:00:58;;;;;;;;;8.33;8.33;;;;;42.70;14.40;101725.91;5082968;27;45553;-76
2022/06/17 10:03:27;;;;;;;;;7.33;6.00;;;;;42.67;13.97;101735.47;5087666;27;45394;-75
2022/06/17 10:05:59;;;;;;;;;6.33;6.33;;;;;42.59;14.10;101738.13;5088499;27;45654;-75
2022/06/17 10:08:43;;;;;;;;;10.00;7.67;;;;;42.74;14.15;101747.75;5088679;27;45510;-75
2022/06/17 10:11:26;;;;;;;;;9.33;8.00;;;;;42.77;15.00;101739.06;5084980;27;46277;-75
2022/06/17 10:14:12;;;;;;;;;7.00;7.00;;;;;42.68;14.96;101743.69;5098000;27;45423;-75
2022/06/17 10:19:55;;;;;;;;;8.00;8.00;;;;;42.92;13.97;101728.22;5085615;27;45422;-77
2022/06/17 10:22:36;;;;;;;;;7.67;6.67;;;;;42.98;14.01;101744.34;5092047;27;46391;-77
2022/06/17 10:25:17;;;;;;;;;8.00;7.00;;;;;42.95;14.68;101725.09;5092575;27;45474;-77
2022/06/17 10:27:42;;;;;;;;;6.00;5.00;;;;;42.97;13.64;101731.41;5089612;27;45452;-75
2022/06/17 10:30:16;;;;;;;;;11.00;9.00;;;;;42.93;14.52;101710.44;5085649;27;45538;-75
2022/06/17 10:32:46;;;;;;;;;8.33;8.33;;;;;42.83;14.35;101702.13;5088196;27;47183;-76
2022/06/17 10:35:27;;;;;;;;;9.33;9.33;;;;;43.01;14.77;101732.84;5091121;27;45438;-76
2022/06/17 10:37:54;;;;;;;;;9.33;9.00;;;;;43.06;14.10;101731.50;5090246;27;45424;-76
2022/06/17 10:40:23;;;;;;;;;7.00;7.00;;;;;43.05;14.44;101721.38;5091564;27;45455;-76
2022/06/17 10:42:52;;;;;;;;;8.00;8.00;;;;;43.22;14.35;101720.44;5086954;27;45577;-76
2022/06/17 10:45:18;;;;;;;;;10.00;9.00;;;;;43.30;14.10;101726.09;5085769;27;45495;-76
2022/06/17 10:48:10;;;;;;;;;8.67;8.67;;;;;43.29;13.39;101723.47;5091915;27;45448;-76
2022/06/17 10:50:36;;;;;;;;;9.67;8.00;;;;;43.18;13.77;101713.44;5091673;27;45604;-76
2022/06/17 10:53:28;;;;;;;;;5.67;5.67;;;;;43.32;13.73;101715.66;5081209;27;45955;-76
2022/06/17 10:55:56;;;;;;;;;7.67;7.00;;;;;43.22;14.09;101708.41;5093581;27;45546;-75
2022/06/17 10:58:27;;;;;;;;;8.67;8.67;;;;;43.24;13.32;101723.06;5092422;27;45510;-75
2022/06/17 11:00:53;;;;;;;;;10.33;9.00;;;;;43.40;13.57;101719.53;5089737;27;45700;-75
2022/06/17 11:03:26;;;;;;;;;11.67;9.00;;;;;43.48;14.20;101723.28;5092660;27;45860;-75
2022/06/17 11:05:59;;;;;;;;;7.00;7.00;;;;;43.45;13.63;101733.91;5091535;27;45471;-75
2022/06/17 11:08:33;;;;;;;;;9.00;9.00;;;;;43.37;13.59;101729.13;5092380;27;45598;-75
2022/06/17 11:12:02;;;;;;;;;8.00;8.00;;;;;43.34;13.68;101701.53;5089940;27;45448;-75
2022/06/17 11:13:48;;;;;;;;;7.00;7.00;;;;;43.63;13.56;101731.06;5091536;27;46526;-76
2022/06/17 11:16:18;;;;;;;;;7.33;7.00;;;;;43.56;13.04;101724.38;5091836;27;45487;-77
2022/06/17 11:18:51;;;;;;;;;7.67;7.00;;;;;43.39;12.47;101712.19;5090975;27;45488;-78
2022/06/17 11:21:23;;;;;;;;;8.00;8.00;;;;;43.65;13.41;101720.59;5094190;27;45614;-76
2022/06/17 11:23:52;;;;;;;;;8.00;6.00;;;;;43.79;13.73;101716.31;5089028;27;46973;-76
2022/06/17 11:26:21;;;;;;;;;7.33;7.33;;;;;43.84;13.50;101737.13;5090765;27;45537;-76
2022/06/17 11:28:53;;;;;;;;;9.00;9.00;;;;;43.79;12.46;101733.94;5092480;27;45382;-76
2022/06/17 11:31:21;;;;;;;;;6.33;6.33;;;;;43.88;12.71;101740.47;5092947;27;45587;-75
2022/06/17 11:33:52;;;;;;;;;7.00;7.00;;;;;43.83;13.25;101742.88;5100106;27;46330;-75
2022/06/17 11:36:19;;;;;;;;;9.67;8.33;;;;;43.85;13.34;101740.78;5090933;27;45734;-75
2022/06/17 11:38:45;;;;;;;;;6.67;6.67;;;;;43.85;12.74;101726.81;5091611;27;45507;-76
2022/06/17 11:41:19;;;;;;;;;7.00;7.00;;;;;43.94;12.43;101717.47;5089087;27;45406;-77
2022/06/17 11:43:47;;;;;;;;;7.33;7.00;;;;;44.01;12.77;101718.53;5090813;27;46258;-80
2022/06/17 11:46:18;;;;;;;;;10.00;8.33;;;;;43.83;12.60;101703.75;5090623;27;45489;-76